sensor_id;sensor_type;location;lat;lon;timestamp;temperature;humidity
40249;DHT22;25969;49.970;11.062;2023-07-13T04:01:47;16.20;92.80
40249;DHT22;25969;49.970;11.062;2023-07-13T04:11:48;16.00;93.30
40249;DHT22;25969;49.970;11.062;2023-07-13T04:21:49;16.10;92.90
40249;DHT22;25969;49.970;11.062;2023-07-13T04:31:50;16.20;92.70
40249;DHT22;25969;49.970;11.062;2023-07-13T04:41:50;16.30;92.60
40249;DHT22;25969;49.970;11.062;2023-07-13T04:51:51;16.70;92.20
40249;DHT22;25969;49.970;11.062;2023-07-13T05:01:52;17.10;88.70
40249;DHT22;25969;49.970;11.062;2023-07-13T05:11:53;17.80;84.60
40249;DHT22;25969;49.970;11.062;2023-07-13T05:21:53;18.40;83.20
40249;DHT22;25969;49.970;11.062;2023-07-13T05:31:54;19.50;76.90
40249;DHT22;25969;49.970;11.062;2023-07-13T05:41:55;19.80;69.90
40249;DHT22;25969;49.970;11.062;2023-07-13T05:51:56;20.10;70.10
40249;DHT22;25969;49.970;11.062;2023-07-13T06:01:57;20.10;69.20
40249;DHT22;25969;49.970;11.062;2023-07-13T06:11:58;20.10;70.40
40249;DHT22;25969;49.970;11.062;2023-07-13T06:21:59;20.30;70.50
40249;DHT22;25969;49.970;11.062;2023-07-13T06:32:00;20.50;68.80
40249;DHT22;25969;49.970;11.062;2023-07-13T06:42:01;20.40;68.40
40249;DHT22;25969;49.970;11.062;2023-07-13T06:52:02;20.10;70.50
40249;DHT22;25969;49.970;11.062;2023-07-13T07:02:03;21.00;66.60
40249;DHT22;25969;49.970;11.062;2023-07-13T07:12:04;22.00;62.70
40249;DHT22;25969;49.970;11.062;2023-07-13T07:22:05;22.30;61.40
40249;DHT22;25969;49.970;11.062;2023-07-13T07:32:06;23.20;59.40
40249;DHT22;25969;49.970;11.062;2023-07-13T07:42:07;23.90;57.60
40249;DHT22;25969;49.970;11.062;2023-07-13T07:52:08;23.20;58.30
40249;DHT22;25969;49.970;11.062;2023-07-13T08:02:10;23.30;58.50
40249;DHT22;25969;49.970;11.062;2023-07-13T08:12:11;23.80;56.80
40249;DHT22;25969;49.970;11.062;2023-07-13T08:22:12;23.40;56.90
40249;DHT22;25969;49.970;11.062;2023-07-13T08:32:13;24.00;55.10
40249;DHT22;25969;49.970;11.062;2023-07-13T08:42:51;23.50;53.10
40249;DHT22;25969;49.970;11.062;2023-07-13T08:52:55;24.20;46.30
40249;DHT22;25969;49.970;11.062;2023-07-13T09:02:58;23.90;45.50
40249;DHT22;25969;49.970;11.062;2023-07-13T09:23:16;24.50;43.80
40249;DHT22;25969;49.970;11.062;2023-07-13T09:33:19;24.60;41.60
40249;DHT22;25969;49.970;11.062;2023-07-13T09:43:20;25.00;42.40
40249;DHT22;25969;49.970;11.062;2023-07-13T09:53:21;26.60;39.60
40249;DHT22;25969;49.970;11.062;2023-07-13T10:03:30;27.30;38.30
40249;DHT22;25969;49.970;11.062;2023-07-13T10:13:34;27.70;36.30
40249;DHT22;25969;49.970;11.062;2023-07-13T10:23:37;29.40;34.90
40249;DHT22;25969;49.970;11.062;2023-07-13T10:33:38;28.40;35.50
40249;DHT22;25969;49.970;11.062;2023-07-13T10:43:42;30.60;33.00
40249;DHT22;25969;49.970;11.062;2023-07-13T10:53:44;33.30;30.30
40249;DHT22;25969;49.970;11.062;2023-07-13T11:03:54;33.80;29.20
40249;DHT22;25969;49.970;11.062;2023-07-13T11:13:59;31.30;31.20
40249;DHT22;25969;49.970;11.062;2023-07-13T11:24:17;29.50;33.70
40249;DHT22;25969;49.970;11.062;2023-07-13T11:34:23;28.80;34.60
40249;DHT22;25969;49.970;11.062;2023-07-13T11:44:28;28.90;34.70
40249;DHT22;25969;49.970;11.062;2023-07-13T11:54:42;28.10;35.70
40249;DHT22;25969;49.970;11.062;2023-07-13T12:04:44;27.90;36.10
40249;DHT22;25969;49.970;11.062;2023-07-13T12:14:45;26.60;38.20
40249;DHT22;25969;49.970;11.062;2023-07-13T12:24:47;28.60;35.00
40249;DHT22;25969;49.970;11.062;2023-07-13T12:35:04;29.80;34.50
40249;DHT22;25969;49.970;11.062;2023-07-13T12:45:24;26.10;37.80
40249;DHT22;25969;49.970;11.062;2023-07-13T12:55:25;27.70;35.60
40249;DHT22;25969;49.970;11.062;2023-07-13T13:05:27;27.60;36.40
40249;DHT22;25969;49.970;11.062;2023-07-13T13:15:29;26.30;39.10
40249;DHT22;25969;49.970;11.062;2023-07-13T13:25:30;25.20;41.00
40249;DHT22;25969;49.970;11.062;2023-07-13T13:35:31;25.80;39.50
40249;DHT22;25969;49.970;11.062;2023-07-13T13:45:32;25.00;41.60
40249;DHT22;25969;49.970;11.062;2023-07-13T13:55:33;26.70;39.60
40249;DHT22;25969;49.970;11.062;2023-07-13T14:05:33;26.40;39.50
40249;DHT22;25969;49.970;11.062;2023-07-13T14:15:34;27.70;37.50
40249;DHT22;25969;49.970;11.062;2023-07-13T14:25:35;27.00;37.60
40249;DHT22;25969;49.970;11.062;2023-07-13T14:35:36;27.40;38.20
40249;DHT22;25969;49.970;11.062;2023-07-13T14:45:41;28.40;38.20
40249;DHT22;25969;49.970;11.062;2023-07-13T14:55:42;28.00;37.50
40249;DHT22;25969;49.970;11.062;2023-07-13T15:05:43;26.50;39.20
40249;DHT22;25969;49.970;11.062;2023-07-13T15:15:47;26.90;39.60
40249;DHT22;25969;49.970;11.062;2023-07-13T15:25:48;26.60;39.00
40249;DHT22;25969;49.970;11.062;2023-07-13T15:35:49;26.80;38.30
40249;DHT22;25969;49.970;11.062;2023-07-13T15:45:51;25.90;39.40
40249;DHT22;25969;49.970;11.062;2023-07-13T15:55:52;25.20;40.30
40249;DHT22;25969;49.970;11.062;2023-07-13T16:05:53;24.90;42.50
40249;DHT22;25969;49.970;11.062;2023-07-13T16:15:54;25.50;40.80
40249;DHT22;25969;49.970;11.062;2023-07-13T16:25:57;24.90;41.40
40249;DHT22;25969;49.970;11.062;2023-07-13T16:35:58;25.30;41.90
40249;DHT22;25969;49.970;11.062;2023-07-13T16:46:00;26.00;40.70
40249;DHT22;25969;49.970;11.062;2023-07-13T16:56:05;25.40;42.80
40249;DHT22;25969;49.970;11.062;2023-07-13T17:06:22;25.50;42.40
40249;DHT22;25969;49.970;11.062;2023-07-13T17:16:27;25.90;42.60
40249;DHT22;25969;49.970;11.062;2023-07-13T17:26:28;25.20;42.50
40249;DHT22;25969;49.970;11.062;2023-07-13T17:36:30;25.30;41.90
40249;DHT22;25969;49.970;11.062;2023-07-13T17:46:34;24.80;42.80
40249;DHT22;25969;49.970;11.062;2023-07-13T17:56:35;24.90;43.10
40249;DHT22;25969;49.970;11.062;2023-07-13T18:06:41;24.60;43.10
40249;DHT22;25969;49.970;11.062;2023-07-13T18:16:54;24.20;43.30
40249;DHT22;25969;49.970;11.062;2023-07-13T18:26:55;23.70;44.30
40249;DHT22;25969;49.970;11.062;2023-07-13T18:36:56;23.00;45.20
40249;DHT22;25969;49.970;11.062;2023-07-13T18:46:57;22.50;46.20
40249;DHT22;25969;49.970;11.062;2023-07-13T18:56:58;22.10;47.70
40249;DHT22;25969;49.970;11.062;2023-07-13T19:06:59;21.50;49.60
40249;DHT22;25969;49.970;11.062;2023-07-13T19:17:00;21.00;51.00
40249;DHT22;25969;49.970;11.062;2023-07-13T19:27:01;20.50;53.10
40249;DHT22;25969;49.970;11.062;2023-07-13T19:37:03;20.20;53.30
40249;DHT22;25969;49.970;11.062;2023-07-13T19:47:14;19.90;54.30
40249;DHT22;25969;49.970;11.062;2023-07-13T19:57:17;19.50;55.00
40249;DHT22;25969;49.970;11.062;2023-07-13T20:07:20;18.90;57.00
40249;DHT22;25969;49.970;11.062;2023-07-13T20:17:33;18.60;58.30
40249;DHT22;25969;49.970;11.062;2023-07-13T20:27:34;18.00;59.40
40249;DHT22;25969;49.970;11.062;2023-07-13T20:37:38;17.70;62.20
40249;DHT22;25969;49.970;11.062;2023-07-13T20:47:40;17.60;62.40
40249;DHT22;25969;49.970;11.062;2023-07-13T20:57:41;17.40;63.70
40249;DHT22;25969;49.970;11.062;2023-07-13T21:07:43;17.30;63.80
40249;DHT22;25969;49.970;11.062;2023-07-13T21:17:46;17.20;64.80
40249;DHT22;25969;49.970;11.062;2023-07-13T21:27:52;17.10;66.10
40249;DHT22;25969;49.970;11.062;2023-07-13T21:37:54;16.70;67.10
40249;DHT22;25969;49.970;11.062;2023-07-13T21:47:55;16.50;68.60
40249;DHT22;25969;49.970;11.062;2023-07-13T21:57:56;16.50;69.30
